sensor_id;sensor_type;location;lat;lon;timestamp;pressure;altitude;pressure_sealevel;temperature;humidity
59009;BME280;44794;42.652;23.318;2023-05-23T00:02:04;94212.97;;;10.57;100.00
59009;BME280;44794;42.652;23.318;2023-05-23T00:04:33;94219.38;;;10.53;100.00
59009;BME280;44794;42.652;23.318;2023-05-23T00:07:00;94222.56;;;10.46;100.00
59009;BME280;44794;42.652;23.318;2023-05-23T00:09:28;94213.75;;;10.38;100.00
59009;BME280;44794;42.652;23.318;2023-05-23T00:11:54;94208.91;;;10.33;100.00
59009;BME280;44794;42.652;23.318;2023-05-23T00:14:19;94203.03;;;10.31;100.00
59009;BME280;44794;42.652;23.318;2023-05-23T00:16:45;94209.41;;;10.27;100.00
59009;BME280;44794;42.652;23.318;2023-05-23T00:19:14;94200.69;;;10.28;100.00
59009;BME280;44794;42.652;23.318;2023-05-23T00:21:40;94202.81;;;10.23;100.00
59009;BME280;44794;42.652;23.318;2023-05-23T00:24:06;94205.91;;;10.17;100.00
59009;BME280;44794;42.652;23.318;2023-05-23T00:26:34;94208.00;;;10.12;100.00
59009;BME280;44794;42.652;23.318;2023-05-23T00:28:59;94200.22;;;10.12;100.00
59009;BME280;44794;42.652;23.318;2023-05-23T00:31:25;94191.50;;;10.13;100.00
59009;BME280;44794;42.652;23.318;2023-05-23T00:33:50;94190.91;;;10.10;100.00
59009;BME280;44794;42.652;23.318;2023-05-23T00:36:15;94187.72;;;10.06;100.00
59009;BME280;44794;42.652;23.318;2023-05-23T00:38:42;94198.47;;;10.02;100.00
59009;BME280;44794;42.652;23.318;2023-05-23T00:41:11;94191.03;;;9.97;100.00
59009;BME280;44794;42.652;23.318;2023-05-23T00:43:36;94195.28;;;9.98;100.00
59009;BME280;44794;42.652;23.318;2023-05-23T00:46:02;94194.34;;;9.99;100.00
59009;BME280;44794;42.652;23.318;2023-05-23T00:48:28;94195.16;;;10.00;100.00
59009;BME280;44794;42.652;23.318;2023-05-23T00:50:54;94190.94;;;9.99;100.00
59009;BME280;44794;42.652;23.318;2023-05-23T00:53:20;94182.31;;;9.98;100.00
59009;BME280;44794;42.652;23.318;2023-05-23T00:55:46;94189.34;;;9.96;100.00
59009;BME280;44794;42.652;23.318;2023-05-23T00:58:12;94195.38;;;9.97;100.00
59009;BME280;44794;42.652;23.318;2023-05-23T01:00:40;94187.72;;;9.95;100.00
59009;BME280;44794;42.652;23.318;2023-05-23T01:03:06;94193.34;;;9.89;100.00
59009;BME280;44794;42.652;23.318;2023-05-23T01:05:31;94189.97;;;10.00;100.00
59009;BME280;44794;42.652;23.318;2023-05-23T01:07:57;94182.91;;;10.02;100.00
59009;BME280;44794;42.652;23.318;2023-05-23T01:10:25;94187.50;;;9.98;100.00
59009;BME280;44794;42.652;23.318;2023-05-23T01:16:10;94199.75;;;9.85;100.00
59009;BME280;44794;42.652;23.318;2023-05-23T01:19:12;94194.78;;;9.93;100.00
59009;BME280;44794;42.652;23.318;2023-05-23T01:21:43;94189.34;;;9.96;100.00
59009;BME280;44794;42.652;23.318;2023-05-23T01:27:07;94187.94;;;9.92;100.00
59009;BME280;44794;42.652;23.318;2023-05-23T01:29:42;94185.72;;;9.88;100.00
59009;BME280;44794;42.652;23.318;2023-05-23T01:32:11;94190.06;;;9.87;100.00
59009;BME280;44794;42.652;23.318;2023-05-23T01:34:38;94190.53;;;9.92;100.00
59009;BME280;44794;42.652;23.318;2023-05-23T01:37:10;94189.72;;;9.92;100.00
59009;BME280;44794;42.652;23.318;2023-05-23T01:39:38;94188.53;;;9.96;100.00
59009;BME280;44794;42.652;23.318;2023-05-23T01:42:04;94188.34;;;9.99;100.00
59009;BME280;44794;42.652;23.318;2023-05-23T01:44:32;94179.59;;;10.00;100.00
59009;BME280;44794;42.652;23.318;2023-05-23T01:46:58;94182.31;;;9.98;100.00
59009;BME280;44794;42.652;23.318;2023-05-23T01:49:25;94179.94;;;9.95;100.00
59009;BME280;44794;42.652;23.318;2023-05-23T01:51:52;94178.16;;;9.96;100.00
59009;BME280;44794;42.652;23.318;2023-05-23T01:54:18;94177.56;;;9.92;100.00
59009;BME280;44794;42.652;23.318;2023-05-23T01:56:44;94176.41;;;9.85;100.00
59009;BME280;44794;42.652;23.318;2023-05-23T01:59:09;94181.34;;;9.77;100.00
59009;BME280;44794;42.652;23.318;2023-05-23T02:01:36;94185.94;;;9.74;100.00
59009;BME280;44794;42.652;23.318;2023-05-23T02:04:03;94183.47;;;9.72;100.00
59009;BME280;44794;42.652;23.318;2023-05-23T02:06:28;94182.16;;;9.67;100.00
59009;BME280;44794;42.652;23.318;2023-05-23T02:08:53;94175.81;;;9.60;100.00
59009;BME280;44794;42.652;23.318;2023-05-23T02:11:19;94184.19;;;9.53;100.00
59009;BME280;44794;42.652;23.318;2023-05-23T02:13:44;94190.88;;;9.44;100.00
59009;BME280;44794;42.652;23.318;2023-05-23T02:16:10;94188.06;;;9.36;100.00
59009;BME280;44794;42.652;23.318;2023-05-23T02:18:35;94189.69;;;9.37;100.00
59009;BME280;44794;42.652;23.318;2023-05-23T02:21:03;94189.69;;;9.37;100.00
59009;BME280;44794;42.652;23.318;2023-05-23T02:23:29;94177.09;;;9.44;100.00
59009;BME280;44794;42.652;23.318;2023-05-23T02:25:54;94174.88;;;9.50;100.00
59009;BME280;44794;42.652;23.318;2023-05-23T02:28:20;94163.44;;;9.64;100.00
59009;BME280;44794;42.652;23.318;2023-05-23T02:30:45;94161.44;;;9.67;100.00
59009;BME280;44794;42.652;23.318;2023-05-23T02:33:11;94160.50;;;9.68;100.00
59009;BME280;44794;42.652;23.318;2023-05-23T02:35:36;94155.19;;;9.69;100.00
59009;BME280;44794;42.652;23.318;2023-05-23T02:38:01;94146.94;;;9.65;100.00
59009;BME280;44794;42.652;23.318;2023-05-23T02:40:27;94148.13;;;9.61;100.00
59009;BME280;44794;42.652;23.318;2023-05-23T02:42:52;94142.59;;;9.54;100.00
59009;BME280;44794;42.652;23.318;2023-05-23T02:45:21;94142.94;;;9.50;100.00
59009;BME280;44794;42.652;23.318;2023-05-23T02:47:47;94143.19;;;9.47;100.00
59009;BME280;44794;42.652;23.318;2023-05-23T02:50:13;94138.09;;;9.45;100.00
59009;BME280;44794;42.652;23.318;2023-05-23T02:52:38;94146.59;;;9.47;100.00
59009;BME280;44794;42.652;23.318;2023-05-23T02:55:04;94144.00;;;9.47;100.00
59009;BME280;44794;42.652;23.318;2023-05-23T02:57:29;94143.28;;;9.45;100.00
59009;BME280;44794;42.652;23.318;2023-05-23T02:59:55;94148.81;;;9.41;100.00
59009;BME280;44794;42.652;23.318;2023-05-23T03:02:20;94148.94;;;9.39;100.00
59009;BME280;44794;42.652;23.318;2023-05-23T03:04:46;94142.69;;;9.42;100.00
59009;BME280;44794;42.652;23.318;2023-05-23T03:07:12;94146.94;;;9.43;100.00
59009;BME280;44794;42.652;23.318;2023-05-23T03:09:39;94147.63;;;9.34;100.00
59009;BME280;44794;42.652;23.318;2023-05-23T03:12:05;94145.28;;;9.31;100.00
59009;BME280;44794;42.652;23.318;2023-05-23T03:14:30;94142.59;;;9.43;100.00
59009;BME280;44794;42.652;23.318;2023-05-23T03:16:56;94135.41;;;9.58;100.00
59009;BME280;44794;42.652;23.318;2023-05-23T03:19:22;94134.69;;;9.67;100.00
59009;BME280;44794;42.652;23.318;2023-05-23T03:21:48;94134.34;;;9.71;100.00
59009;BME280;44794;42.652;23.318;2023-05-23T03:24:15;94139.63;;;9.69;100.00
59009;BME280;44794;42.652;23.318;2023-05-23T03:26:40;94136.69;;;9.74;100.00
59009;BME280;44794;42.652;23.318;2023-05-23T03:29:06;94139.06;;;9.77;100.00
59009;BME280;44794;42.652;23.318;2023-05-23T03:31:31;94144.09;;;9.78;100.00
59009;BME280;44794;42.652;23.318;2023-05-23T03:33:56;94146.44;;;9.92;100.00
59009;BME280;44794;42.652;23.318;2023-05-23T03:36:22;94149.63;;;9.96;100.00
59009;BME280;44794;42.652;23.318;2023-05-23T03:38:51;94148.09;;;10.04;100.00
59009;BME280;44794;42.652;23.318;2023-05-23T03:41:17;94153.78;;;10.09;100.00
59009;BME280;44794;42.652;23.318;2023-05-23T03:43:42;94154.44;;;10.22;100.00
59009;BME280;44794;42.652;23.318;2023-05-23T03:46:08;94149.94;;;10.35;100.00
59009;BME280;44794;42.652;23.318;2023-05-23T03:48:33;94152.00;;;10.52;100.00
59009;BME280;44794;42.652;23.318;2023-05-23T03:50:59;94152.41;;;10.68;100.00
59009;BME280;44794;42.652;23.318;2023-05-23T03:53:24;94162.75;;;10.79;100.00
59009;BME280;44794;42.652;23.318;2023-05-23T03:55:50;94167.75;;;10.91;100.00
59009;BME280;44794;42.652;23.318;2023-05-23T03:58:18;94166.19;;;11.00;100.00
59009;BME280;44794;42.652;23.318;2023-05-23T04:00:43;94171.13;;;11.03;100.00
59009;BME280;44794;42.652;23.318;2023-05-23T04:03:09;94179.84;;;11.13;100.00
59009;BME280;44794;42.652;23.318;2023-05-23T04:05:35;94185.31;;;11.19;100.00
59009;BME280;44794;42.652;23.318;2023-05-23T04:08:01;94180.78;;;11.32;100.00
59009;BME280;44794;42.652;23.318;2023-05-23T04:10:26;94184.38;;;11.40;100.00
59009;BME280;44794;42.652;23.318;2023-05-23T04:12:52;94177.38;;;11.52;100.00
59009;BME280;44794;42.652;23.318;2023-05-23T04:15:17;94186.50;;;11.67;100.00
59009;BME280;44794;42.652;23.318;2023-05-23T04:17:45;94176.81;;;11.78;100.00
59009;BME280;44794;42.652;23.318;2023-05-23T04:20:11;94186.81;;;11.83;100.00
59009;BME280;44794;42.652;23.318;2023-05-23T04:22:37;94189.88;;;11.88;100.00
59009;BME280;44794;42.652;23.318;2023-05-23T04:25:03;94191.56;;;11.98;100.00
59009;BME280;44794;42.652;23.318;2023-05-23T04:27:28;94206.84;;;12.12;100.00
59009;BME280;44794;42.652;23.318;2023-05-23T04:29:55;94202.31;;;12.23;100.00
59009;BME280;44794;42.652;23.318;2023-05-23T04:32:22;94208.94;;;12.27;100.00
59009;BME280;44794;42.652;23.318;2023-05-23T04:34:48;94223.72;;;12.27;100.00
59009;BME280;44794;42.652;23.318;2023-05-23T04:37:14;94239.78;;;12.02;100.00
59009;BME280;44794;42.652;23.318;2023-05-23T04:39:41;94248.28;;;12.04;100.00
59009;BME280;44794;42.652;23.318;2023-05-23T04:42:07;94245.34;;;12.18;100.00
59009;BME280;44794;42.652;23.318;2023-05-23T04:44:32;94242.63;;;12.29;100.00
59009;BME280;44794;42.652;23.318;2023-05-23T04:46:58;94232.41;;;12.46;100.00
59009;BME280;44794;42.652;23.318;2023-05-23T04:49:23;94238.75;;;12.63;100.00
59009;BME280;44794;42.652;23.318;2023-05-23T04:51:49;94247.16;;;12.75;100.00
59009;BME280;44794;42.652;23.318;2023-05-23T04:54:15;94258.13;;;12.79;100.00
59009;BME280;44794;42.652;23.318;2023-05-23T04:56:40;94273.38;;;12.83;100.00
59009;BME280;44794;42.652;23.318;2023-05-23T04:59:06;94282.47;;;12.59;100.00
59009;BME280;44794;42.652;23.318;2023-05-23T05:01:33;94279.47;;;12.54;100.00
59009;BME280;44794;42.652;23.318;2023-05-23T05:03:59;94274.84;;;12.67;100.00
59009;BME280;44794;42.652;23.318;2023-05-23T05:06:25;94280.47;;;12.72;100.00
59009;BME280;44794;42.652;23.318;2023-05-23T05:08:51;94287.22;;;12.74;100.00
59009;BME280;44794;42.652;23.318;2023-05-23T05:11:17;94286.38;;;12.83;100.00
59009;BME280;44794;42.652;23.318;2023-05-23T05:13:42;94299.06;;;12.88;100.00
59009;BME280;44794;42.652;23.318;2023-05-23T05:16:08;94299.69;;;12.80;100.00
59009;BME280;44794;42.652;23.318;2023-05-23T05:18:34;94299.91;;;12.88;100.00
59009;BME280;44794;42.652;23.318;2023-05-23T05:21:00;94297.97;;;12.90;100.00
59009;BME280;44794;42.652;23.318;2023-05-23T05:23:26;94310.75;;;12.93;100.00
59009;BME280;44794;42.652;23.318;2023-05-23T05:25:55;94307.06;;;13.05;100.00
59009;BME280;44794;42.652;23.318;2023-05-23T05:28:21;94299.38;;;13.23;100.00
59009;BME280;44794;42.652;23.318;2023-05-23T05:30:46;94309.97;;;13.40;100.00
59009;BME280;44794;42.652;23.318;2023-05-23T05:33:12;94316.59;;;13.44;100.00
59009;BME280;44794;42.652;23.318;2023-05-23T05:35:38;94322.22;;;13.49;100.00
59009;BME280;44794;42.652;23.318;2023-05-23T05:38:04;94329.31;;;13.66;100.00
59009;BME280;44794;42.652;23.318;2023-05-23T05:40:33;94334.81;;;13.82;100.00
59009;BME280;44794;42.652;23.318;2023-05-23T05:42:58;94343.34;;;13.46;100.00
59009;BME280;44794;42.652;23.318;2023-05-23T05:45:24;94349.41;;;13.65;100.00
59009;BME280;44794;42.652;23.318;2023-05-23T05:47:49;94354.03;;;13.90;100.00
59009;BME280;44794;42.652;23.318;2023-05-23T05:50:16;94353.53;;;14.15;100.00
59009;BME280;44794;42.652;23.318;2023-05-23T05:52:41;94357.88;;;14.33;100.00
59009;BME280;44794;42.652;23.318;2023-05-23T05:55:09;94368.69;;;14.48;100.00
59009;BME280;44794;42.652;23.318;2023-05-23T05:57:38;94374.75;;;14.94;100.00
59009;BME280;44794;42.652;23.318;2023-05-23T06:00:09;94393.03;;;15.30;100.00
59009;BME280;44794;42.652;23.318;2023-05-23T06:02:40;94401.91;;;15.47;100.00
59009;BME280;44794;42.652;23.318;2023-05-23T06:05:10;94411.22;;;15.76;100.00
59009;BME280;44794;42.652;23.318;2023-05-23T06:07:43;94409.75;;;15.91;100.00
59009;BME280;44794;42.652;23.318;2023-05-23T06:10:09;94417.38;;;16.19;100.00
59009;BME280;44794;42.652;23.318;2023-05-23T06:12:38;94420.34;;;16.59;100.00
59009;BME280;44794;42.652;23.318;2023-05-23T06:15:07;94431.59;;;16.94;97.51
59009;BME280;44794;42.652;23.318;2023-05-23T06:17:34;94438.81;;;17.26;95.43
59009;BME280;44794;42.652;23.318;2023-05-23T06:19:59;94454.53;;;17.43;91.56
59009;BME280;44794;42.652;23.318;2023-05-23T06:22:25;94459.03;;;17.58;90.29
59009;BME280;44794;42.652;23.318;2023-05-23T06:24:50;94454.22;;;16.95;91.13
59009;BME280;44794;42.652;23.318;2023-05-23T06:27:16;94443.50;;;16.89;93.48
59009;BME280;44794;42.652;23.318;2023-05-23T06:29:41;94442.06;;;16.69;93.35
59009;BME280;44794;42.652;23.318;2023-05-23T06:32:07;94442.66;;;16.80;94.27
59009;BME280;44794;42.652;23.318;2023-05-23T06:34:32;94446.94;;;17.73;94.05
59009;BME280;44794;42.652;23.318;2023-05-23T06:36:57;94471.31;;;19.12;83.39
59009;BME280;44794;42.652;23.318;2023-05-23T06:39:23;94482.19;;;20.92;74.56
59009;BME280;44794;42.652;23.318;2023-05-23T06:41:48;94481.75;;;21.25;67.90
59009;BME280;44794;42.652;23.318;2023-05-23T06:44:14;94484.31;;;22.20;62.82
59009;BME280;44794;42.652;23.318;2023-05-23T06:46:42;94480.97;;;23.45;56.08
59009;BME280;44794;42.652;23.318;2023-05-23T06:49:07;94496.53;;;25.54;49.91
59009;BME280;44794;42.652;23.318;2023-05-23T06:51:33;94496.75;;;27.66;43.54
59009;BME280;44794;42.652;23.318;2023-05-23T06:53:58;94488.94;;;25.77;46.50
59009;BME280;44794;42.652;23.318;2023-05-23T06:56:23;94494.50;;;26.58;45.43
59009;BME280;44794;42.652;23.318;2023-05-23T06:58:49;94486.50;;;27.63;43.25
59009;BME280;44794;42.652;23.318;2023-05-23T07:01:14;94494.72;;;28.04;40.91
59009;BME280;44794;42.652;23.318;2023-05-23T07:03:40;94490.63;;;28.25;41.10
59009;BME280;44794;42.652;23.318;2023-05-23T07:06:07;94486.22;;;29.95;37.85
59009;BME280;44794;42.652;23.318;2023-05-23T07:08:33;94487.16;;;31.53;34.98
59009;BME280;44794;42.652;23.318;2023-05-23T07:10:58;94479.09;;;32.02;33.55
59009;BME280;44794;42.652;23.318;2023-05-23T07:13:24;94477.50;;;31.40;34.01
59009;BME280;44794;42.652;23.318;2023-05-23T07:15:49;94473.22;;;31.72;33.25
59009;BME280;44794;42.652;23.318;2023-05-23T07:18:15;94474.38;;;30.76;34.22
59009;BME280;44794;42.652;23.318;2023-05-23T07:20:40;94466.66;;;30.80;34.12
59009;BME280;44794;42.652;23.318;2023-05-23T07:23:06;94457.47;;;31.31;33.57
59009;BME280;44794;42.652;23.318;2023-05-23T07:25:31;94462.78;;;32.63;31.86
59009;BME280;44794;42.652;23.318;2023-05-23T07:27:56;94460.06;;;34.16;29.61
59009;BME280;44794;42.652;23.318;2023-05-23T07:30:22;94452.63;;;35.50;28.84
59009;BME280;44794;42.652;23.318;2023-05-23T07:32:48;94454.22;;;33.92;29.88
59009;BME280;44794;42.652;23.318;2023-05-23T07:35:14;94450.31;;;34.05;29.61
59009;BME280;44794;42.652;23.318;2023-05-23T07:37:41;94445.88;;;35.72;27.26
59009;BME280;44794;42.652;23.318;2023-05-23T07:40:07;94448.03;;;33.92;29.10
59009;BME280;44794;42.652;23.318;2023-05-23T07:42:35;94438.59;;;31.92;31.22
59009;BME280;44794;42.652;23.318;2023-05-23T07:45:01;94433.38;;;32.02;31.94
59009;BME280;44794;42.652;23.318;2023-05-23T07:47:27;94438.81;;;32.23;32.07
59009;BME280;44794;42.652;23.318;2023-05-23T07:49:54;94438.66;;;32.51;32.06
59009;BME280;44794;42.652;23.318;2023-05-23T07:52:19;94434.78;;;33.59;29.57
59009;BME280;44794;42.652;23.318;2023-05-23T07:54:46;94437.44;;;34.17;29.05
59009;BME280;44794;42.652;23.318;2023-05-23T07:57:11;94433.59;;;32.71;30.20
59009;BME280;44794;42.652;23.318;2023-05-23T07:59:37;94431.94;;;31.78;31.77
59009;BME280;44794;42.652;23.318;2023-05-23T08:02:03;94426.31;;;29.56;34.44
59009;BME280;44794;42.652;23.318;2023-05-23T08:04:29;94425.44;;;27.73;37.84
59009;BME280;44794;42.652;23.318;2023-05-23T08:06:56;94420.16;;;26.37;40.38
59009;BME280;44794;42.652;23.318;2023-05-23T08:09:22;94408.50;;;25.87;43.42
59009;BME280;44794;42.652;23.318;2023-05-23T08:11:48;94404.22;;;24.70;46.23
59009;BME280;44794;42.652;23.318;2023-05-23T08:14:13;94396.25;;;23.70;50.55
59009;BME280;44794;42.652;23.318;2023-05-23T08:16:39;94390.09;;;23.57;50.82
59009;BME280;44794;42.652;23.318;2023-05-23T08:19:04;94396.38;;;23.22;52.18
59009;BME280;44794;42.652;23.318;2023-05-23T08:21:30;94395.00;;;22.22;57.66
59009;BME280;44794;42.652;23.318;2023-05-23T08:23:56;94391.66;;;22.13;58.58
59009;BME280;44794;42.652;23.318;2023-05-23T08:26:22;94393.22;;;21.58;61.02
59009;BME280;44794;42.652;23.318;2023-05-23T08:28:47;94400.66;;;20.97;64.77
59009;BME280;44794;42.652;23.318;2023-05-23T08:31:13;94391.97;;;20.89;64.26
59009;BME280;44794;42.652;23.318;2023-05-23T08:33:38;94394.03;;;20.56;66.17
59009;BME280;44794;42.652;23.318;2023-05-23T08:36:04;94387.91;;;20.41;68.55
59009;BME280;44794;42.652;23.318;2023-05-23T08:38:29;94389.84;;;19.95;72.38
59009;BME280;44794;42.652;23.318;2023-05-23T08:41:00;94384.94;;;19.84;73.05
59009;BME280;44794;42.652;23.318;2023-05-23T08:43:26;94370.50;;;19.72;73.03
59009;BME280;44794;42.652;23.318;2023-05-23T08:45:52;94375.69;;;19.96;72.96
59009;BME280;44794;42.652;23.318;2023-05-23T08:48:19;94384.50;;;20.11;65.37
59009;BME280;44794;42.652;23.318;2023-05-23T08:50:47;94389.19;;;20.45;65.99
59009;BME280;44794;42.652;23.318;2023-05-23T08:53:16;94383.06;;;20.67;65.47
59009;BME280;44794;42.652;23.318;2023-05-23T08:55:46;94385.22;;;20.86;65.36
59009;BME280;44794;42.652;23.318;2023-05-23T08:58:13;94385.00;;;21.10;64.17
59009;BME280;44794;42.652;23.318;2023-05-23T09:00:41;94390.34;;;21.16;60.41
59009;BME280;44794;42.652;23.318;2023-05-23T09:03:07;94382.25;;;20.89;60.44
59009;BME280;44794;42.652;23.318;2023-05-23T09:05:33;94376.69;;;20.99;63.56
59009;BME280;44794;42.652;23.318;2023-05-23T09:07:58;94384.91;;;21.18;61.99
59009;BME280;44794;42.652;23.318;2023-05-23T09:10:24;94392.09;;;21.24;55.60
59009;BME280;44794;42.652;23.318;2023-05-23T09:12:49;94387.38;;;21.48;58.48
59009;BME280;44794;42.652;23.318;2023-05-23T09:15:15;94387.94;;;21.73;55.58
59009;BME280;44794;42.652;23.318;2023-05-23T09:17:41;94390.03;;;21.77;55.92
59009;BME280;44794;42.652;23.318;2023-05-23T09:20:10;94392.94;;;21.68;57.63
59009;BME280;44794;42.652;23.318;2023-05-23T09:22:36;94393.06;;;21.60;51.02
59009;BME280;44794;42.652;23.318;2023-05-23T09:25:02;94396.69;;;21.59;48.66
59009;BME280;44794;42.652;23.318;2023-05-23T09:27:27;94392.22;;;21.74;48.24
59009;BME280;44794;42.652;23.318;2023-05-23T09:29:53;94384.53;;;21.21;48.49
59009;BME280;44794;42.652;23.318;2023-05-23T09:32:19;94385.53;;;21.20;48.92
59009;BME280;44794;42.652;23.318;2023-05-23T09:34:56;94387.00;;;21.37;47.42
59009;BME280;44794;42.652;23.318;2023-05-23T09:39:56;94386.00;;;21.38;47.05
59009;BME280;44794;42.652;23.318;2023-05-23T09:42:22;94384.00;;;21.69;47.71
59009;BME280;44794;42.652;23.318;2023-05-23T09:44:48;94383.75;;;21.99;47.24
59009;BME280;44794;42.652;23.318;2023-05-23T09:47:15;94375.97;;;21.91;46.54
59009;BME280;44794;42.652;23.318;2023-05-23T09:49:45;94370.88;;;22.10;46.24
59009;BME280;44794;42.652;23.318;2023-05-23T09:52:11;94376.06;;;21.69;45.18
59009;BME280;44794;42.652;23.318;2023-05-23T09:54:38;94363.28;;;21.87;47.37
59009;BME280;44794;42.652;23.318;2023-05-23T09:57:09;94365.81;;;21.94;46.59
59009;BME280;44794;42.652;23.318;2023-05-23T09:59:38;94371.63;;;22.04;47.30
59009;BME280;44794;42.652;23.318;2023-05-23T10:02:06;94374.00;;;21.99;45.06
59009;BME280;44794;42.652;23.318;2023-05-23T10:04:33;94367.44;;;21.95;45.02
59009;BME280;44794;42.652;23.318;2023-05-23T10:07:19;94368.31;;;22.02;42.46
59009;BME280;44794;42.652;23.318;2023-05-23T10:09:54;94368.06;;;22.12;42.40
59009;BME280;44794;42.652;23.318;2023-05-23T10:15:02;94373.41;;;21.83;40.68
59009;BME280;44794;42.652;23.318;2023-05-23T10:20:09;94361.25;;;21.89;44.05
59009;BME280;44794;42.652;23.318;2023-05-23T10:22:37;94360.16;;;22.18;45.71
59009;BME280;44794;42.652;23.318;2023-05-23T10:25:03;94361.56;;;22.14;43.82
59009;BME280;44794;42.652;23.318;2023-05-23T10:27:30;94344.91;;;21.99;44.02
59009;BME280;44794;42.652;23.318;2023-05-23T10:29:57;94355.81;;;22.11;43.13
59009;BME280;44794;42.652;23.318;2023-05-23T10:32:24;94356.50;;;21.98;42.95
59009;BME280;44794;42.652;23.318;2023-05-23T10:37:48;94348.28;;;21.73;43.35
59009;BME280;44794;42.652;23.318;2023-05-23T10:43:17;94344.34;;;22.04;42.71
59009;BME280;44794;42.652;23.318;2023-05-23T10:45:44;94348.25;;;22.08;41.49
59009;BME280;44794;42.652;23.318;2023-05-23T10:48:32;94336.00;;;22.21;44.32
59009;BME280;44794;42.652;23.318;2023-05-23T10:51:08;94345.59;;;22.08;41.63
59009;BME280;44794;42.652;23.318;2023-05-23T10:53:41;94341.88;;;22.02;40.53
59009;BME280;44794;42.652;23.318;2023-05-23T10:56:09;94342.03;;;22.15;41.20
59009;BME280;44794;42.652;23.318;2023-05-23T10:58:37;94341.19;;;22.29;42.11
59009;BME280;44794;42.652;23.318;2023-05-23T11:01:12;94330.47;;;22.37;40.37
59009;BME280;44794;42.652;23.318;2023-05-23T11:06:30;94327.06;;;22.64;40.87
59009;BME280;44794;42.652;23.318;2023-05-23T11:09:10;94331.47;;;22.57;39.59
59009;BME280;44794;42.652;23.318;2023-05-23T11:12:03;94326.28;;;22.70;39.98
59009;BME280;44794;42.652;23.318;2023-05-23T11:16:59;94332.63;;;22.75;38.05
59009;BME280;44794;42.652;23.318;2023-05-23T11:19:26;94328.78;;;22.78;37.95
59009;BME280;44794;42.652;23.318;2023-05-23T11:24:48;94318.78;;;22.73;37.81
59009;BME280;44794;42.652;23.318;2023-05-23T11:27:30;94325.34;;;22.57;37.35
59009;BME280;44794;42.652;23.318;2023-05-23T11:30:16;94322.19;;;22.26;38.45
59009;BME280;44794;42.652;23.318;2023-05-23T11:32:52;94321.00;;;22.28;38.04
59009;BME280;44794;42.652;23.318;2023-05-23T11:35:18;94315.84;;;22.41;40.47
59009;BME280;44794;42.652;23.318;2023-05-23T11:37:44;94309.75;;;22.68;40.26
59009;BME280;44794;42.652;23.318;2023-05-23T11:42:57;94303.91;;;22.72;38.42
59009;BME280;44794;42.652;23.318;2023-05-23T11:45:24;94302.91;;;22.80;38.66
59009;BME280;44794;42.652;23.318;2023-05-23T11:47:50;94302.31;;;22.78;39.81
59009;BME280;44794;42.652;23.318;2023-05-23T11:50:15;94300.47;;;22.78;37.29
59009;BME280;44794;42.652;23.318;2023-05-23T11:52:41;94300.53;;;22.85;38.14
59009;BME280;44794;42.652;23.318;2023-05-23T11:55:07;94302.69;;;22.75;37.34
59009;BME280;44794;42.652;23.318;2023-05-23T11:57:37;94291.94;;;22.83;36.75
59009;BME280;44794;42.652;23.318;2023-05-23T12:00:04;94287.75;;;22.95;38.11
59009;BME280;44794;42.652;23.318;2023-05-23T12:02:30;94288.25;;;23.05;36.89
59009;BME280;44794;42.652;23.318;2023-05-23T12:04:55;94291.50;;;23.07;38.66
59009;BME280;44794;42.652;23.318;2023-05-23T12:07:20;94281.16;;;23.12;38.02
59009;BME280;44794;42.652;23.318;2023-05-23T12:09:46;94281.75;;;23.14;37.99
59009;BME280;44794;42.652;23.318;2023-05-23T12:12:12;94281.19;;;23.18;38.26
59009;BME280;44794;42.652;23.318;2023-05-23T12:14:38;94272.09;;;23.34;37.38
59009;BME280;44794;42.652;23.318;2023-05-23T12:17:11;94268.34;;;23.22;36.52
59009;BME280;44794;42.652;23.318;2023-05-23T12:19:38;94278.53;;;23.18;37.28
59009;BME280;44794;42.652;23.318;2023-05-23T12:22:07;94268.50;;;23.48;36.83
59009;BME280;44794;42.652;23.318;2023-05-23T12:24:33;94283.09;;;23.31;36.39
59009;BME280;44794;42.652;23.318;2023-05-23T12:27:00;94277.53;;;23.19;35.65
59009;BME280;44794;42.652;23.318;2023-05-23T12:29:33;94262.09;;;23.02;37.16
59009;BME280;44794;42.652;23.318;2023-05-23T12:32:00;94260.88;;;22.98;37.37
59009;BME280;44794;42.652;23.318;2023-05-23T12:34:26;94258.69;;;23.08;38.07
59009;BME280;44794;42.652;23.318;2023-05-23T12:36:59;94255.09;;;23.22;38.13
59009;BME280;44794;42.652;23.318;2023-05-23T12:39:28;94253.94;;;23.31;35.94
59009;BME280;44794;42.652;23.318;2023-05-23T12:41:55;94248.78;;;23.23;36.39
59009;BME280;44794;42.652;23.318;2023-05-23T12:44:30;94246.56;;;23.20;36.10
59009;BME280;44794;42.652;23.318;2023-05-23T12:46:56;94238.88;;;23.38;36.45
59009;BME280;44794;42.652;23.318;2023-05-23T12:49:21;94232.44;;;23.59;37.44
59009;BME280;44794;42.652;23.318;2023-05-23T12:51:47;94241.31;;;23.92;36.61
59009;BME280;44794;42.652;23.318;2023-05-23T12:54:12;94235.00;;;24.06;36.02
59009;BME280;44794;42.652;23.318;2023-05-23T12:56:38;94230.31;;;24.08;36.96
59009;BME280;44794;42.652;23.318;2023-05-23T12:59:03;94231.34;;;24.14;36.96
59009;BME280;44794;42.652;23.318;2023-05-23T13:01:29;94237.66;;;24.06;36.26
59009;BME280;44794;42.652;23.318;2023-05-23T13:03:55;94228.66;;;23.81;36.36
59009;BME280;44794;42.652;23.318;2023-05-23T13:06:20;94233.13;;;23.87;36.54
59009;BME280;44794;42.652;23.318;2023-05-23T13:08:46;94229.78;;;23.66;33.48
59009;BME280;44794;42.652;23.318;2023-05-23T13:11:13;94240.56;;;23.51;32.77
59009;BME280;44794;42.652;23.318;2023-05-23T13:13:38;94226.84;;;23.42;33.24
59009;BME280;44794;42.652;23.318;2023-05-23T13:16:04;94236.69;;;23.54;33.34
59009;BME280;44794;42.652;23.318;2023-05-23T13:18:29;94224.41;;;23.40;32.61